Time;durP1;ratioP1;P1;durP2;ratioP2;P2;SDS_P1;SDS_P2;PMS_P1;PMS_P2;Temp;Humidity;BMP_temperature;BMP_pressure;BME280_temperature;BME280_humidity;BME280_pressure;Samples;Min_cycle;Max_cycle;Signal;HPM_P1;HPM_P2
2023/03/06 00:09:05;;;;;;;13.80;5.97;;;;;;;4.55;95.32;99361.00;31340400;28;20119;-83
2023/03/06 00:24:07;;;;;;;15.70;6.53;;;;;;;4.22;96.68;99360.47;31334393;28;20091;-80
2023/03/06 00:39:09;;;;;;;13.40;5.80;;;;;;;4.76;92.76;99350.06;31322016;28;20048;-82
2023/03/06 00:54:11;;;;;;;15.20;6.80;;;;;;;4.33;97.96;99353.06;31339007;28;20112;-79
2023/03/06 01:09:23;;;;;;;14.67;7.47;;;;;;;4.27;100.00;99356.56;31366569;28;20489;-81
2023/03/06 01:24:25;;;;;;;20.23;8.40;;;;;;;3.91;100.00;99361.38;31331058;28;20555;-80
2023/03/06 01:39:27;;;;;;;13.43;6.63;;;;;;;3.81;100.00;99362.19;31351439;28;20453;-80
2023/03/06 01:54:44;;;;;;;16.73;5.97;;;;;;;4.13;100.00;99356.66;31363118;28;20086;-78
2023/03/06 02:09:46;;;;;;;26.27;9.13;;;;;;;3.82;100.00;99347.59;31399437;28;20076;-82
2023/03/06 02:25:02;;;;;;;18.60;8.00;;;;;;;3.53;100.00;99353.09;31366170;28;20103;-82
2023/03/06 02:40:11;;;;;;;19.80;8.57;;;;;;;3.55;100.00;99350.00;31344800;28;20053;-83
2023/03/06 02:55:13;;;;;;;13.47;6.57;;;;;;;3.67;100.00;99369.16;31362551;28;20083;-85
2023/03/06 03:10:17;;;;;;;10.07;7.23;;;;;;;3.89;100.00;99369.06;31349854;28;20068;-84
2023/03/06 03:25:21;;;;;;;15.83;7.90;;;;;;;4.07;100.00;99358.97;31428619;28;20100;-84
2023/03/06 03:40:24;;;;;;;17.33;6.83;;;;;;;4.28;100.00;99368.84;31412564;28;20188;-83
2023/03/06 03:55:26;;;;;;;18.47;6.97;;;;;;;4.36;100.00;99375.72;31307458;28;20053;-83
2023/03/06 04:10:28;;;;;;;15.70;6.77;;;;;;;4.15;98.87;99365.84;31318155;28;20115;-81
2023/03/06 04:25:31;;;;;;;16.73;7.47;;;;;;;3.86;100.00;99377.88;31341500;28;20045;-80
2023/03/06 04:40:34;;;;;;;13.80;8.73;;;;;;;3.59;100.00;99375.69;31348261;28;20057;-85
2023/03/06 04:55:37;;;;;;;16.23;6.90;;;;;;;3.28;100.00;99395.31;31322581;28;20045;-83
2023/03/06 05:10:41;;;;;;;16.07;6.30;;;;;;;4.29;100.00;99398.00;31366133;28;20114;-83
2023/03/06 05:25:44;;;;;;;13.20;5.57;;;;;;;5.50;95.71;99421.28;31363995;28;20454;-81
2023/03/06 05:40:46;;;;;;;9.07;4.97;;;;;;;5.97;87.59;99418.88;31407748;28;20055;-82
2023/03/06 05:56:10;;;;;;;7.40;4.30;;;;;;;7.19;79.74;99449.88;31349598;28;20480;-81
2023/03/06 06:11:14;;;;;;;13.87;7.03;;;;;;;8.74;67.75;99460.06;31402692;28;20049;-86
2023/03/06 06:26:17;;;;;;;15.97;9.60;;;;;;;9.81;60.11;99482.59;31347405;28;20527;-85
2023/03/06 06:41:20;;;;;;;10.93;6.17;;;;;;;11.30;51.92;99485.63;31380983;28;20498;-84
2023/03/06 06:56:42;;;;;;;11.60;6.00;;;;;;;12.38;49.67;99509.50;31360279;28;20548;-81
2023/03/06 07:11:44;;;;;;;11.00;5.57;;;;;;;13.44;45.92;99518.28;31370331;28;20111;-83
2023/03/06 07:26:47;;;;;;;8.17;4.03;;;;;;;13.17;42.99;99524.44;31320888;28;20057;-81
2023/03/06 07:41:49;;;;;;;8.23;3.30;;;;;;;12.45;43.27;99524.81;31369232;28;20044;-81
2023/03/06 07:56:51;;;;;;;9.63;3.23;;;;;;;12.19;42.22;99505.91;31334129;28;20055;-83
2023/03/06 08:11:54;;;;;;;5.37;2.67;;;;;;;12.48;40.71;99524.69;31295912;28;20067;-83
2023/03/06 08:26:56;;;;;;;3.50;2.50;;;;;;;12.47;40.54;99531.34;31327428;28;20056;-77
2023/03/06 08:41:58;;;;;;;5.40;2.23;;;;;;;13.07;39.90;99547.38;31382012;28;20437;-81
2023/03/06 08:57:01;;;;;;;4.37;2.23;;;;;;;14.11;36.37;99555.63;31346208;28;20052;-82
2023/03/06 09:12:04;;;;;;;6.13;3.07;;;;;;;14.97;35.45;99564.31;31336876;28;20514;-78
2023/03/06 09:27:06;;;;;;;6.70;3.00;;;;;;;15.83;32.30;99562.97;31333222;28;20049;-86
2023/03/06 09:42:14;;;;;;;8.93;3.90;;;;;;;14.93;34.29;99562.94;31352551;28;20053;-81
2023/03/06 09:57:31;;;;;;;7.80;3.23;;;;;;;15.09;33.41;99565.34;31409798;28;20060;-80
2023/03/06 10:12:43;;;;;;;8.20;3.43;;;;;;;14.29;34.17;99554.88;31357266;28;20065;-85
2023/03/06 10:27:53;;;;;;;6.93;3.23;;;;;;;13.75;33.64;99561.81;31337981;28;20045;-79
2023/03/06 10:42:54;;;;;;;5.97;2.80;;;;;;;13.38;34.45;99549.31;31368039;28;20054;-75
2023/03/06 10:58:21;;;;;;;11.40;4.07;;;;;;;13.46;35.34;99542.38;31314456;28;20053;-76
2023/03/06 11:13:30;;;;;;;5.60;2.97;;;;;;;13.26;36.44;99554.41;31374554;28;20455;-77
2023/03/06 11:28:39;;;;;;;7.57;2.33;;;;;;;15.18;35.01;99537.94;31307513;28;20061;-78
2023/03/06 11:44:18;;;;;;;6.97;3.20;;;;;;;14.43;35.90;99546.06;31359365;28;20053;-76
2023/03/06 11:59:57;;;;;;;6.60;3.33;;;;;;;15.25;35.25;99545.81;31373192;28;20095;-76
2023/03/06 12:15:17;;;;;;;7.13;3.23;;;;;;;13.84;37.11;99542.75;31349052;28;20032;-85
2023/03/06 12:30:26;;;;;;;5.53;2.97;;;;;;;13.24;38.42;99559.56;31342604;28;20041;-80
2023/03/06 12:45:37;;;;;;;8.87;3.10;;;;;;;13.00;39.55;99558.53;31325904;28;20052;-76
2023/03/06 13:01:33;;;;;;;5.77;3.00;;;;;;;12.92;39.36;99557.28;31353310;28;20053;-75
2023/03/06 13:16:35;;;;;;;7.13;2.57;;;;;;;12.60;40.01;99569.38;31285269;28;20135;-75
2023/03/06 13:31:38;;;;;;;7.97;3.80;;;;;;;12.68;40.21;99583.50;31331791;28;20049;-77
2023/03/06 13:46:41;;;;;;;7.17;3.20;;;;;;;12.04;40.32;99583.78;31341749;28;20092;-80
2023/03/06 14:02:10;;;;;;;10.40;4.10;;;;;;;11.99;41.95;99602.63;31329189;28;20107;-76
2023/03/06 14:17:34;;;;;;;9.07;3.37;;;;;;;11.05;44.34;99609.41;31318710;28;20057;-80
2023/03/06 14:32:38;;;;;;;21.17;4.23;;;;;;;11.05;46.34;99630.38;31319039;28;20053;-78
2023/03/06 14:47:41;;;;;;;10.33;3.87;;;;;;;10.98;46.75;99649.59;31314288;28;20048;-78
2023/03/06 15:02:45;;;;;;;7.97;3.40;;;;;;;10.94;45.73;99660.53;31316508;28;20514;-78
2023/03/06 15:17:50;;;;;;;6.83;3.60;;;;;;;11.02;44.12;99670.03;31328367;28;20040;-84
2023/03/06 15:33:16;;;;;;;8.57;3.00;;;;;;;11.00;42.79;99680.56;31316464;28;20058;-82
2023/03/06 15:48:18;;;;;;;5.63;2.90;;;;;;;10.83;43.10;99689.97;31292837;28;20302;-79
2023/03/06 16:03:20;;;;;;;10.07;3.73;;;;;;;10.61;43.49;99699.88;31325253;28;20059;-77
2023/03/06 16:18:22;;;;;;;11.23;5.20;;;;;;;10.48;43.88;99719.56;31303852;28;20049;-80
2023/03/06 16:33:24;;;;;;;11.73;4.73;;;;;;;9.85;49.01;99733.44;31337464;28;20049;-76
2023/03/06 16:48:26;;;;;;;15.13;6.13;;;;;;;9.74;49.79;99730.19;31338100;28;20049;-85
2023/03/06 17:03:28;;;;;;;10.27;5.33;;;;;;;9.62;50.74;99738.22;31381286;28;20064;-85
2023/03/06 17:18:48;;;;;;;10.17;4.90;;;;;;;9.85;51.62;99746.22;31310349;28;20127;-82
2023/03/06 17:33:55;;;;;;;13.30;6.77;;;;;;;9.73;52.58;99752.28;31386027;28;20463;-78
2023/03/06 17:48:57;;;;;;;13.17;6.43;;;;;;;9.87;53.68;99747.34;31358972;28;20098;-77
2023/03/06 18:04:01;;;;;;;13.03;6.37;;;;;;;9.64;56.99;99755.59;31380020;28;20136;-76
2023/03/06 18:19:02;;;;;;;23.80;11.23;;;;;;;9.48;59.52;99758.25;31351767;28;20053;-77
2023/03/06 18:34:12;;;;;;;12.27;5.67;;;;;;;9.26;61.36;99773.41;31367172;28;20048;-75
2023/03/06 18:49:15;;;;;;;15.07;6.60;;;;;;;9.17;66.34;99788.28;31353477;28;20045;-76
2023/03/06 19:04:16;;;;;;;16.07;8.27;;;;;;;9.22;70.22;99795.88;31341205;28;20053;-75
2023/03/06 19:19:19;;;;;;;19.50;8.93;;;;;;;9.01;75.75;99803.66;31355330;28;20110;-76
2023/03/06 19:34:21;;;;;;;12.80;6.33;;;;;;;8.87;78.94;99799.25;31324613;28;20053;-76
2023/03/06 19:49:27;;;;;;;16.07;8.70;;;;;;;8.79;83.86;99795.91;31330780;28;20056;-75
2023/03/06 20:04:33;;;;;;;15.33;6.77;;;;;;;8.75;86.42;99789.03;31315298;28;20653;-77
2023/03/06 20:19:35;;;;;;;14.23;5.63;;;;;;;8.77;89.56;99786.66;31389111;28;20200;-81
2023/03/06 20:34:38;;;;;;;14.27;6.93;;;;;;;8.62;96.64;99783.44;31332907;28;20460;-79
2023/03/06 20:49:40;;;;;;;15.10;7.27;;;;;;;8.35;96.15;99778.09;31338327;28;20147;-78
2023/03/06 21:04:42;;;;;;;13.53;6.43;;;;;;;8.24;95.92;99774.78;31318858;28;20049;-80
2023/03/06 21:19:46;;;;;;;12.17;5.57;;;;;;;8.45;92.86;99776.41;31328298;28;20054;-78
2023/03/06 21:34:49;;;;;;;11.97;5.40;;;;;;;8.40;93.59;99780.31;31337849;28;20053;-78
2023/03/06 21:49:51;;;;;;;8.77;4.90;;;;;;;8.40;95.77;99772.22;31353778;28;20482;-80
2023/03/06 22:04:56;;;;;;;10.03;4.63;;;;;;;8.34;98.00;99776.56;31327504;28;20061;-78
2023/03/06 22:20:02;;;;;;;9.03;4.63;;;;;;;8.38;100.00;99771.84;31366598;28;20521;-78
2023/03/06 22:35:05;;;;;;;9.57;4.47;;;;;;;8.25;100.00;99783.66;31347663;28;20050;-79
2023/03/06 22:50:08;;;;;;;11.73;5.83;;;;;;;7.88;100.00;99783.38;31361373;28;20114;-77
2023/03/06 23:05:10;;;;;;;11.77;4.87;;;;;;;7.84;100.00;99793.47;31326288;28;20064;-78
2023/03/06 23:20:13;;;;;;;8.77;4.43;;;;;;;7.59;100.00;99793.03;31373188;28;20049;-78
2023/03/06 23:35:15;;;;;;;9.43;4.73;;;;;;;7.08;100.00;99788.63;31366233;28;20049;-81
2023/03/06 23:50:17;;;;;;;13.53;5.10;;;;;;;6.85;100.00;99779.19;31322566;28;20049;-79
